Pagrindinis puslapis
METAR-TAF:

METAR-TAF

Oro uostai :

Mécheria, Alžyras

platuma: 34-56N, ilguma: 000-26W, Aukštis: 1149 m

Dabartinis oras

Ataskaita buvo paskelbta 43 minutes, ne 17:00 UTC
Vėjas 16 kt iš Pietvakarių
Temperatūra 22°C
Drėgmė 14%
Slėgis 1012 hPa
Matomumas: 6000 m
Išsisklaidę debesys ne aukštis 3000 ft
Išsisklaidę debesys ne aukštis 23300 ft

METAR: DAAY 311700Z 22016KT 6000 SCT030 SCT233 22/M07 Q1012

Laikas: 18:43 (17:43 UTC)

Prognozė

Ataskaita buvo paskelbta 3 valandos ir 43 minutes, ne 14:00 UTC
Prognozė galioja nuo 31 metu 15 UTC su 31 metu 24 UTC
Vėjas 20 kt iš Vakarų/Pietvakarių su gūsio iki 30 kt
Matomumas: 3000 m
Išsisklaidę debesys ne aukštis 3000 ft
Smėlio pustymas pažeme
Tikimybė 40% :
Laikinai
nuo 31 metu 15 UTC su 31 metu 18 UTC
Matomumas: 1500 m
Mažai debesys ne aukštis 3000 ft, Liūtiniai kamuoliniai debesys.
Smėlio pustymas pažeme

TAF: DAAY 311400Z 3115/3124 24020G30KT 3000 DRSA SCT030 PROB40 TEMPO 3115/3118 1500 DRSA FEW030CB

Orai ataskaitas ir orų prognozės (METAR, TAF).

turimą stotys yra geltonos ir raudonos taškus žemėlapyje.

Perkelti pele per norėdami pamatyti stoties vardą.

Tada spustelėkite, norėdami matyti oro stebėjimo ir prognozės.

Norėdami pakeisti žemėlapį: spustelėkite ant žalios mygtukų su juodo kryžiaus žemyn,; žalią mygtuką su brūkšneliu, jei norite nutolinti; arba žalių rodyklių gretimoms žemėlapius.


METAR-TAF: